sensor_id;sensor_type;location;lat;lon;timestamp;temperature;humidity
18948;DHT22;9607;51.600;7.558;2022-08-07T00:00:48;12.20;99.90
18948;DHT22;9607;51.600;7.558;2022-08-07T00:03:15;12.20;99.90
18948;DHT22;9607;51.600;7.558;2022-08-07T00:05:41;12.10;99.90
18948;DHT22;9607;51.600;7.558;2022-08-07T00:08:09;12.10;99.90
18948;DHT22;9607;51.600;7.558;2022-08-07T00:10:39;12.10;99.90
18948;DHT22;9607;51.600;7.558;2022-08-07T00:13:06;12.10;99.90
18948;DHT22;9607;51.600;7.558;2022-08-07T00:15:33;12.10;99.90
18948;DHT22;9607;51.600;7.558;2022-08-07T00:18:00;12.00;99.90
18948;DHT22;9607;51.600;7.558;2022-08-07T00:20:27;12.00;99.90
18948;DHT22;9607;51.600;7.558;2022-08-07T00:22:54;12.00;99.90
18948;DHT22;9607;51.600;7.558;2022-08-07T00:25:21;11.90;99.90
18948;DHT22;9607;51.600;7.558;2022-08-07T00:27:52;11.90;99.90
18948;DHT22;9607;51.600;7.558;2022-08-07T00:30:20;11.90;99.90
18948;DHT22;9607;51.600;7.558;2022-08-07T00:32:47;11.90;99.90
18948;DHT22;9607;51.600;7.558;2022-08-07T00:35:17;11.80;99.90
18948;DHT22;9607;51.600;7.558;2022-08-07T00:37:44;11.80;99.90
18948;DHT22;9607;51.600;7.558;2022-08-07T00:40:11;11.80;99.90
18948;DHT22;9607;51.600;7.558;2022-08-07T00:42:39;11.70;99.90
18948;DHT22;9607;51.600;7.558;2022-08-07T00:45:09;11.70;99.90
18948;DHT22;9607;51.600;7.558;2022-08-07T00:47:37;11.70;99.90
18948;DHT22;9607;51.600;7.558;2022-08-07T00:50:05;11.60;99.90
18948;DHT22;9607;51.600;7.558;2022-08-07T00:52:32;11.60;99.90
18948;DHT22;9607;51.600;7.558;2022-08-07T00:54:59;11.60;99.90
18948;DHT22;9607;51.600;7.558;2022-08-07T00:57:26;11.50;99.90
18948;DHT22;9607;51.600;7.558;2022-08-07T00:59:53;11.50;99.90
18948;DHT22;9607;51.600;7.558;2022-08-07T01:02:23;11.40;99.90
18948;DHT22;9607;51.600;7.558;2022-08-07T01:04:50;11.40;99.90
18948;DHT22;9607;51.600;7.558;2022-08-07T01:07:19;11.30;99.90
18948;DHT22;9607;51.600;7.558;2022-08-07T01:09:46;11.30;99.90
18948;DHT22;9607;51.600;7.558;2022-08-07T01:12:14;11.30;99.90
18948;DHT22;9607;51.600;7.558;2022-08-07T01:14:41;11.20;99.90
18948;DHT22;9607;51.600;7.558;2022-08-07T01:17:09;11.20;99.90
18948;DHT22;9607;51.600;7.558;2022-08-07T01:19:37;11.20;99.90
18948;DHT22;9607;51.600;7.558;2022-08-07T01:22:06;11.10;99.90
18948;DHT22;9607;51.600;7.558;2022-08-07T01:24:34;11.10;99.90
18948;DHT22;9607;51.600;7.558;2022-08-07T01:27:01;11.20;99.90
18948;DHT22;9607;51.600;7.558;2022-08-07T01:29:29;11.10;99.90
18948;DHT22;9607;51.600;7.558;2022-08-07T01:31:56;11.10;99.90
18948;DHT22;9607;51.600;7.558;2022-08-07T01:34:24;11.10;99.90
18948;DHT22;9607;51.600;7.558;2022-08-07T01:36:51;11.10;99.90
18948;DHT22;9607;51.600;7.558;2022-08-07T01:39:19;11.00;99.90
18948;DHT22;9607;51.600;7.558;2022-08-07T01:41:46;11.00;99.90
18948;DHT22;9607;51.600;7.558;2022-08-07T01:44:14;11.00;99.90
18948;DHT22;9607;51.600;7.558;2022-08-07T01:46:41;11.00;99.90
18948;DHT22;9607;51.600;7.558;2022-08-07T01:49:10;11.00;99.90
18948;DHT22;9607;51.600;7.558;2022-08-07T01:51:38;11.00;99.90
18948;DHT22;9607;51.600;7.558;2022-08-07T01:54:08;11.10;99.90
18948;DHT22;9607;51.600;7.558;2022-08-07T01:56:45;11.10;99.90
18948;DHT22;9607;51.600;7.558;2022-08-07T01:59:21;11.10;99.90
18948;DHT22;9607;51.600;7.558;2022-08-07T02:02:07;11.10;99.90
18948;DHT22;9607;51.600;7.558;2022-08-07T02:04:39;11.10;99.90
18948;DHT22;9607;51.600;7.558;2022-08-07T02:07:07;11.00;99.90
18948;DHT22;9607;51.600;7.558;2022-08-07T02:09:35;11.00;99.90
18948;DHT22;9607;51.600;7.558;2022-08-07T02:12:05;11.00;99.90
18948;DHT22;9607;51.600;7.558;2022-08-07T02:14:44;11.00;99.90
18948;DHT22;9607;51.600;7.558;2022-08-07T02:17:13;10.90;99.90
18948;DHT22;9607;51.600;7.558;2022-08-07T02:19:42;11.00;99.90
18948;DHT22;9607;51.600;7.558;2022-08-07T02:22:12;10.90;99.90
18948;DHT22;9607;51.600;7.558;2022-08-07T02:24:42;10.90;99.90
18948;DHT22;9607;51.600;7.558;2022-08-07T02:27:11;10.80;99.90
18948;DHT22;9607;51.600;7.558;2022-08-07T02:29:40;10.70;99.90
18948;DHT22;9607;51.600;7.558;2022-08-07T02:32:13;10.70;99.90
18948;DHT22;9607;51.600;7.558;2022-08-07T02:34:41;10.70;99.90
18948;DHT22;9607;51.600;7.558;2022-08-07T02:37:11;10.60;99.90
18948;DHT22;9607;51.600;7.558;2022-08-07T02:39:41;10.60;99.90
18948;DHT22;9607;51.600;7.558;2022-08-07T02:42:10;10.50;99.90
18948;DHT22;9607;51.600;7.558;2022-08-07T02:44:39;10.50;99.90
18948;DHT22;9607;51.600;7.558;2022-08-07T02:47:09;10.40;99.90
18948;DHT22;9607;51.600;7.558;2022-08-07T02:49:37;10.40;99.90
18948;DHT22;9607;51.600;7.558;2022-08-07T02:52:08;10.40;99.90
18948;DHT22;9607;51.600;7.558;2022-08-07T02:54:40;10.40;99.90
18948;DHT22;9607;51.600;7.558;2022-08-07T02:57:12;10.40;99.90
18948;DHT22;9607;51.600;7.558;2022-08-07T02:59:41;10.40;99.90
18948;DHT22;9607;51.600;7.558;2022-08-07T03:02:12;10.40;99.90
18948;DHT22;9607;51.600;7.558;2022-08-07T03:04:41;10.40;99.90
18948;DHT22;9607;51.600;7.558;2022-08-07T03:07:10;10.40;99.90
18948;DHT22;9607;51.600;7.558;2022-08-07T03:09:38;10.40;99.90
18948;DHT22;9607;51.600;7.558;2022-08-07T03:12:06;10.30;99.90
18948;DHT22;9607;51.600;7.558;2022-08-07T03:14:36;10.30;99.90
18948;DHT22;9607;51.600;7.558;2022-08-07T03:17:04;10.20;99.90
18948;DHT22;9607;51.600;7.558;2022-08-07T03:19:33;10.20;99.90
18948;DHT22;9607;51.600;7.558;2022-08-07T03:22:01;10.20;99.90
18948;DHT22;9607;51.600;7.558;2022-08-07T03:24:30;10.10;99.90
18948;DHT22;9607;51.600;7.558;2022-08-07T03:27:00;10.00;99.90
18948;DHT22;9607;51.600;7.558;2022-08-07T03:29:31;10.00;99.90
18948;DHT22;9607;51.600;7.558;2022-08-07T03:32:05;10.00;99.90
18948;DHT22;9607;51.600;7.558;2022-08-07T03:34:33;9.90;99.90
18948;DHT22;9607;51.600;7.558;2022-08-07T03:37:03;10.00;99.90
18948;DHT22;9607;51.600;7.558;2022-08-07T03:39:32;9.90;99.90
18948;DHT22;9607;51.600;7.558;2022-08-07T03:42:01;9.90;99.90
18948;DHT22;9607;51.600;7.558;2022-08-07T03:44:29;9.90;99.90
18948;DHT22;9607;51.600;7.558;2022-08-07T03:46:57;9.90;99.90
18948;DHT22;9607;51.600;7.558;2022-08-07T03:49:28;9.90;99.90
18948;DHT22;9607;51.600;7.558;2022-08-07T03:51:56;9.90;99.90
18948;DHT22;9607;51.600;7.558;2022-08-07T03:54:25;9.90;99.90
18948;DHT22;9607;51.600;7.558;2022-08-07T03:56:54;9.90;99.90
18948;DHT22;9607;51.600;7.558;2022-08-07T03:59:21;9.90;99.90
18948;DHT22;9607;51.600;7.558;2022-08-07T04:01:52;9.90;99.90
18948;DHT22;9607;51.600;7.558;2022-08-07T04:04:20;10.00;99.90
18948;DHT22;9607;51.600;7.558;2022-08-07T04:06:49;10.00;99.90
18948;DHT22;9607;51.600;7.558;2022-08-07T04:09:16;10.00;99.90
18948;DHT22;9607;51.600;7.558;2022-08-07T04:11:44;9.90;99.90
18948;DHT22;9607;51.600;7.558;2022-08-07T04:14:11;10.00;99.90
18948;DHT22;9607;51.600;7.558;2022-08-07T04:16:39;9.90;99.90
18948;DHT22;9607;51.600;7.558;2022-08-07T04:19:07;9.90;99.90
18948;DHT22;9607;51.600;7.558;2022-08-07T04:21:34;9.90;99.90
18948;DHT22;9607;51.600;7.558;2022-08-07T04:24:04;9.90;99.90
18948;DHT22;9607;51.600;7.558;2022-08-07T04:26:34;10.00;99.90
18948;DHT22;9607;51.600;7.558;2022-08-07T04:29:01;10.00;99.90
18948;DHT22;9607;51.600;7.558;2022-08-07T04:31:29;10.00;99.90
18948;DHT22;9607;51.600;7.558;2022-08-07T04:33:56;10.10;99.90
18948;DHT22;9607;51.600;7.558;2022-08-07T04:36:23;10.10;99.90
18948;DHT22;9607;51.600;7.558;2022-08-07T04:38:50;10.10;99.90
18948;DHT22;9607;51.600;7.558;2022-08-07T04:41:19;10.20;99.90
18948;DHT22;9607;51.600;7.558;2022-08-07T04:43:47;10.20;99.90
18948;DHT22;9607;51.600;7.558;2022-08-07T04:46:19;10.20;99.90
18948;DHT22;9607;51.600;7.558;2022-08-07T04:48:59;10.30;99.90
18948;DHT22;9607;51.600;7.558;2022-08-07T04:51:33;10.30;99.90
18948;DHT22;9607;51.600;7.558;2022-08-07T04:54:05;10.40;99.90
18948;DHT22;9607;51.600;7.558;2022-08-07T04:56:45;10.40;99.90
18948;DHT22;9607;51.600;7.558;2022-08-07T04:59:20;10.40;99.90
18948;DHT22;9607;51.600;7.558;2022-08-07T05:01:56;10.50;99.90
18948;DHT22;9607;51.600;7.558;2022-08-07T05:04:32;10.50;99.90
18948;DHT22;9607;51.600;7.558;2022-08-07T05:07:09;10.50;99.90
18948;DHT22;9607;51.600;7.558;2022-08-07T05:09:41;10.60;99.90
18948;DHT22;9607;51.600;7.558;2022-08-07T05:12:15;10.70;99.90
18948;DHT22;9607;51.600;7.558;2022-08-07T05:14:45;10.80;99.90
18948;DHT22;9607;51.600;7.558;2022-08-07T05:17:16;10.80;99.90
18948;DHT22;9607;51.600;7.558;2022-08-07T05:19:47;10.90;99.90
18948;DHT22;9607;51.600;7.558;2022-08-07T05:22:18;11.00;99.90
18948;DHT22;9607;51.600;7.558;2022-08-07T05:24:47;11.00;99.90
18948;DHT22;9607;51.600;7.558;2022-08-07T05:27:18;11.10;99.90
18948;DHT22;9607;51.600;7.558;2022-08-07T05:29:49;11.10;99.90
18948;DHT22;9607;51.600;7.558;2022-08-07T05:32:18;11.20;99.90
18948;DHT22;9607;51.600;7.558;2022-08-07T05:34:47;11.30;99.90
18948;DHT22;9607;51.600;7.558;2022-08-07T05:37:15;11.40;99.90
18948;DHT22;9607;51.600;7.558;2022-08-07T05:39:44;11.50;99.90
18948;DHT22;9607;51.600;7.558;2022-08-07T05:42:13;11.60;99.90
18948;DHT22;9607;51.600;7.558;2022-08-07T05:44:41;11.80;99.90
18948;DHT22;9607;51.600;7.558;2022-08-07T05:47:10;11.90;99.90
18948;DHT22;9607;51.600;7.558;2022-08-07T05:49:37;12.00;99.90
18948;DHT22;9607;51.600;7.558;2022-08-07T05:52:06;12.10;99.90
18948;DHT22;9607;51.600;7.558;2022-08-07T05:54:34;12.20;99.90
18948;DHT22;9607;51.600;7.558;2022-08-07T05:57:02;12.40;99.90
18948;DHT22;9607;51.600;7.558;2022-08-07T05:59:31;12.50;99.90
18948;DHT22;9607;51.600;7.558;2022-08-07T06:02:04;12.60;99.90
18948;DHT22;9607;51.600;7.558;2022-08-07T06:04:33;12.70;99.90
18948;DHT22;9607;51.600;7.558;2022-08-07T06:07:02;12.90;99.90
18948;DHT22;9607;51.600;7.558;2022-08-07T06:09:30;13.00;99.90
18948;DHT22;9607;51.600;7.558;2022-08-07T06:11:58;13.10;99.90
18948;DHT22;9607;51.600;7.558;2022-08-07T06:14:25;13.20;99.90
18948;DHT22;9607;51.600;7.558;2022-08-07T06:16:53;13.30;99.90
18948;DHT22;9607;51.600;7.558;2022-08-07T06:19:22;13.40;99.90
18948;DHT22;9607;51.600;7.558;2022-08-07T06:21:50;13.50;99.90
18948;DHT22;9607;51.600;7.558;2022-08-07T06:24:18;13.50;99.90
18948;DHT22;9607;51.600;7.558;2022-08-07T06:26:45;13.60;99.90
18948;DHT22;9607;51.600;7.558;2022-08-07T06:29:13;13.70;99.90
18948;DHT22;9607;51.600;7.558;2022-08-07T06:31:40;13.80;99.90
18948;DHT22;9607;51.600;7.558;2022-08-07T06:34:07;13.90;99.90
18948;DHT22;9607;51.600;7.558;2022-08-07T06:36:35;14.00;99.90
18948;DHT22;9607;51.600;7.558;2022-08-07T06:39:02;14.10;99.90
18948;DHT22;9607;51.600;7.558;2022-08-07T06:41:33;14.20;99.90
18948;DHT22;9607;51.600;7.558;2022-08-07T06:44:04;14.30;99.90
18948;DHT22;9607;51.600;7.558;2022-08-07T06:46:31;14.40;99.90
18948;DHT22;9607;51.600;7.558;2022-08-07T06:48:59;14.60;99.90
18948;DHT22;9607;51.600;7.558;2022-08-07T06:51:28;14.70;99.90
18948;DHT22;9607;51.600;7.558;2022-08-07T06:53:59;14.80;99.90
18948;DHT22;9607;51.600;7.558;2022-08-07T06:56:29;14.90;99.90
18948;DHT22;9607;51.600;7.558;2022-08-07T06:59:06;15.10;99.90
18948;DHT22;9607;51.600;7.558;2022-08-07T07:01:34;15.20;99.90
18948;DHT22;9607;51.600;7.558;2022-08-07T07:04:05;15.30;99.90
18948;DHT22;9607;51.600;7.558;2022-08-07T07:06:32;15.40;99.90
18948;DHT22;9607;51.600;7.558;2022-08-07T07:09:18;15.50;99.90
18948;DHT22;9607;51.600;7.558;2022-08-07T07:14:43;15.70;99.90
18948;DHT22;9607;51.600;7.558;2022-08-07T07:17:16;15.80;99.90
18948;DHT22;9607;51.600;7.558;2022-08-07T07:19:53;16.00;99.90
18948;DHT22;9607;51.600;7.558;2022-08-07T07:22:22;16.10;99.90
18948;DHT22;9607;51.600;7.558;2022-08-07T07:41:13;17.10;99.90
18948;DHT22;9607;51.600;7.558;2022-08-07T07:43:42;17.20;99.90
18948;DHT22;9607;51.600;7.558;2022-08-07T07:46:10;17.30;99.90
18948;DHT22;9607;51.600;7.558;2022-08-07T07:48:39;17.40;99.90
18948;DHT22;9607;51.600;7.558;2022-08-07T08:16:00;18.80;99.90
18948;DHT22;9607;51.600;7.558;2022-08-07T08:18:28;19.00;99.90
18948;DHT22;9607;51.600;7.558;2022-08-07T08:20:57;19.10;99.90
18948;DHT22;9607;51.600;7.558;2022-08-07T08:23:27;19.30;99.30
18948;DHT22;9607;51.600;7.558;2022-08-07T08:26:14;19.30;98.50
18948;DHT22;9607;51.600;7.558;2022-08-07T08:29:00;19.40;97.70
18948;DHT22;9607;51.600;7.558;2022-08-07T08:31:34;19.50;97.40
18948;DHT22;9607;51.600;7.558;2022-08-07T08:34:03;19.60;97.50
18948;DHT22;9607;51.600;7.558;2022-08-07T08:36:32;19.60;97.10
18948;DHT22;9607;51.600;7.558;2022-08-07T08:39:03;19.70;97.10
18948;DHT22;9607;51.600;7.558;2022-08-07T08:41:42;19.80;96.20
18948;DHT22;9607;51.600;7.558;2022-08-07T08:44:32;19.90;95.50
18948;DHT22;9607;51.600;7.558;2022-08-07T08:47:06;20.00;94.80
18948;DHT22;9607;51.600;7.558;2022-08-07T08:49:41;20.10;93.90
18948;DHT22;9607;51.600;7.558;2022-08-07T08:52:14;20.10;92.10
18948;DHT22;9607;51.600;7.558;2022-08-07T08:54:46;20.20;91.40
18948;DHT22;9607;51.600;7.558;2022-08-07T08:57:20;20.30;91.40
18948;DHT22;9607;51.600;7.558;2022-08-07T10:02:38;21.90;60.50
18948;DHT22;9607;51.600;7.558;2022-08-07T10:35:18;22.40;55.50
18948;DHT22;9607;51.600;7.558;2022-08-07T10:37:58;22.50;56.70
18948;DHT22;9607;51.600;7.558;2022-08-07T10:40:33;22.50;57.10
18948;DHT22;9607;51.600;7.558;2022-08-07T10:43:11;22.50;56.00
18948;DHT22;9607;51.600;7.558;2022-08-07T10:45:46;22.50;56.50
18948;DHT22;9607;51.600;7.558;2022-08-07T10:48:25;22.60;56.00
18948;DHT22;9607;51.600;7.558;2022-08-07T10:50:57;22.60;56.10
18948;DHT22;9607;51.600;7.558;2022-08-07T10:53:29;22.60;55.70
18948;DHT22;9607;51.600;7.558;2022-08-07T10:56:03;22.70;55.30
18948;DHT22;9607;51.600;7.558;2022-08-07T10:58:45;22.70;54.30
18948;DHT22;9607;51.600;7.558;2022-08-07T11:04:10;22.90;54.70
18948;DHT22;9607;51.600;7.558;2022-08-07T11:06:51;23.00;55.10
18948;DHT22;9607;51.600;7.558;2022-08-07T11:09:25;23.20;54.60
18948;DHT22;9607;51.600;7.558;2022-08-07T11:12:00;23.20;53.10
18948;DHT22;9607;51.600;7.558;2022-08-07T11:14:32;23.30;52.70
18948;DHT22;9607;51.600;7.558;2022-08-07T11:17:06;23.40;52.10
18948;DHT22;9607;51.600;7.558;2022-08-07T11:19:38;23.50;52.70
18948;DHT22;9607;51.600;7.558;2022-08-07T11:22:11;23.50;52.50
18948;DHT22;9607;51.600;7.558;2022-08-07T11:24:52;23.50;52.00
18948;DHT22;9607;51.600;7.558;2022-08-07T11:27:26;23.50;50.90
18948;DHT22;9607;51.600;7.558;2022-08-07T11:30:02;23.50;52.10
18948;DHT22;9607;51.600;7.558;2022-08-07T11:32:35;23.40;50.70
18948;DHT22;9607;51.600;7.558;2022-08-07T11:35:07;23.40;50.80
18948;DHT22;9607;51.600;7.558;2022-08-07T11:37:56;23.40;51.30
18948;DHT22;9607;51.600;7.558;2022-08-07T11:40:37;23.50;50.50
18948;DHT22;9607;51.600;7.558;2022-08-07T11:43:12;23.50;50.20
18948;DHT22;9607;51.600;7.558;2022-08-07T11:45:52;23.50;51.40
18948;DHT22;9607;51.600;7.558;2022-08-07T11:48:34;23.60;51.60
18948;DHT22;9607;51.600;7.558;2022-08-07T11:51:19;23.60;51.40
18948;DHT22;9607;51.600;7.558;2022-08-07T11:53:57;23.70;50.10
18948;DHT22;9607;51.600;7.558;2022-08-07T11:56:35;23.70;49.60
18948;DHT22;9607;51.600;7.558;2022-08-07T11:59:21;23.70;49.70
18948;DHT22;9607;51.600;7.558;2022-08-07T12:04:49;23.80;50.70
18948;DHT22;9607;51.600;7.558;2022-08-07T12:07:25;23.90;49.30
18948;DHT22;9607;51.600;7.558;2022-08-07T12:09:57;23.90;48.50
18948;DHT22;9607;51.600;7.558;2022-08-07T12:12:35;23.90;48.70
18948;DHT22;9607;51.600;7.558;2022-08-07T12:15:09;24.00;49.10
18948;DHT22;9607;51.600;7.558;2022-08-07T12:17:41;24.10;48.80
18948;DHT22;9607;51.600;7.558;2022-08-07T12:20:17;24.10;48.10
18948;DHT22;9607;51.600;7.558;2022-08-07T12:22:55;24.20;48.80
18948;DHT22;9607;51.600;7.558;2022-08-07T12:25:40;24.60;48.70
18948;DHT22;9607;51.600;7.558;2022-08-07T12:28:23;24.90;49.10
18948;DHT22;9607;51.600;7.558;2022-08-07T12:30:55;25.20;46.80
18948;DHT22;9607;51.600;7.558;2022-08-07T12:33:27;26.00;46.00
18948;DHT22;9607;51.600;7.558;2022-08-07T12:35:57;26.90;45.70
18948;DHT22;9607;51.600;7.558;2022-08-07T12:38:25;27.70;44.60
18948;DHT22;9607;51.600;7.558;2022-08-07T12:40:55;28.30;44.00
18948;DHT22;9607;51.600;7.558;2022-08-07T12:43:28;28.50;41.80
18948;DHT22;9607;51.600;7.558;2022-08-07T12:46:07;28.50;41.80
18948;DHT22;9607;51.600;7.558;2022-08-07T12:48:44;28.40;43.00
18948;DHT22;9607;51.600;7.558;2022-08-07T12:51:16;28.30;43.30
18948;DHT22;9607;51.600;7.558;2022-08-07T12:53:54;28.20;41.50
18948;DHT22;9607;51.600;7.558;2022-08-07T12:56:31;28.60;42.30
18948;DHT22;9607;51.600;7.558;2022-08-07T12:59:02;29.40;41.00
18948;DHT22;9607;51.600;7.558;2022-08-07T13:01:41;30.30;38.00
18948;DHT22;9607;51.600;7.558;2022-08-07T13:04:24;31.00;37.60
18948;DHT22;9607;51.600;7.558;2022-08-07T13:07:06;31.20;36.40
18948;DHT22;9607;51.600;7.558;2022-08-07T13:12:49;31.10;36.30
18948;DHT22;9607;51.600;7.558;2022-08-07T13:15:25;30.60;36.20
18948;DHT22;9607;51.600;7.558;2022-08-07T13:18:02;29.80;36.40
18948;DHT22;9607;51.600;7.558;2022-08-07T13:20:40;29.20;37.20
18948;DHT22;9607;51.600;7.558;2022-08-07T13:23:13;28.70;38.80
18948;DHT22;9607;51.600;7.558;2022-08-07T13:25:44;28.20;39.50
18948;DHT22;9607;51.600;7.558;2022-08-07T13:28:32;27.80;40.70
18948;DHT22;9607;51.600;7.558;2022-08-07T13:31:03;27.20;40.50
18948;DHT22;9607;51.600;7.558;2022-08-07T13:33:40;26.70;40.60
18948;DHT22;9607;51.600;7.558;2022-08-07T13:36:15;26.40;41.10
18948;DHT22;9607;51.600;7.558;2022-08-07T13:38:50;26.00;42.00
18948;DHT22;9607;51.600;7.558;2022-08-07T13:41:29;25.90;43.50
18948;DHT22;9607;51.600;7.558;2022-08-07T13:44:03;25.80;43.70
18948;DHT22;9607;51.600;7.558;2022-08-07T13:46:33;25.70;43.40
18948;DHT22;9607;51.600;7.558;2022-08-07T13:49:02;25.60;42.60
18948;DHT22;9607;51.600;7.558;2022-08-07T13:51:31;25.50;42.60
18948;DHT22;9607;51.600;7.558;2022-08-07T13:54:02;25.40;43.40
18948;DHT22;9607;51.600;7.558;2022-08-07T13:56:32;25.40;43.50
18948;DHT22;9607;51.600;7.558;2022-08-07T13:59:02;25.50;43.30
18948;DHT22;9607;51.600;7.558;2022-08-07T14:01:33;25.50;43.70
18948;DHT22;9607;51.600;7.558;2022-08-07T14:04:06;25.60;43.80
18948;DHT22;9607;51.600;7.558;2022-08-07T14:06:36;25.90;44.80
18948;DHT22;9607;51.600;7.558;2022-08-07T14:09:06;26.10;43.80
18948;DHT22;9607;51.600;7.558;2022-08-07T14:11:43;26.20;43.00
18948;DHT22;9607;51.600;7.558;2022-08-07T14:14:14;26.10;43.70
18948;DHT22;9607;51.600;7.558;2022-08-07T14:16:45;26.10;43.80
18948;DHT22;9607;51.600;7.558;2022-08-07T14:19:16;26.10;43.10
18948;DHT22;9607;51.600;7.558;2022-08-07T14:21:47;25.90;43.50
18948;DHT22;9607;51.600;7.558;2022-08-07T14:24:21;25.90;44.10
18948;DHT22;9607;51.600;7.558;2022-08-07T14:26:54;26.00;44.40
18948;DHT22;9607;51.600;7.558;2022-08-07T14:29:25;26.10;44.30
18948;DHT22;9607;51.600;7.558;2022-08-07T14:31:57;26.10;44.50
18948;DHT22;9607;51.600;7.558;2022-08-07T14:34:27;26.00;43.80
18948;DHT22;9607;51.600;7.558;2022-08-07T14:36:55;26.10;44.60
18948;DHT22;9607;51.600;7.558;2022-08-07T14:39:23;26.20;44.60
18948;DHT22;9607;51.600;7.558;2022-08-07T14:41:52;26.30;43.90
18948;DHT22;9607;51.600;7.558;2022-08-07T14:44:23;26.50;43.50
18948;DHT22;9607;51.600;7.558;2022-08-07T14:46:53;26.60;42.80
18948;DHT22;9607;51.600;7.558;2022-08-07T14:49:26;26.80;42.60
18948;DHT22;9607;51.600;7.558;2022-08-07T14:51:55;27.00;41.90
18948;DHT22;9607;51.600;7.558;2022-08-07T14:54:24;27.00;42.20
18948;DHT22;9607;51.600;7.558;2022-08-07T14:56:55;27.20;42.30
18948;DHT22;9607;51.600;7.558;2022-08-07T14:59:25;27.30;43.10
18948;DHT22;9607;51.600;7.558;2022-08-07T15:01:56;27.60;41.60
18948;DHT22;9607;51.600;7.558;2022-08-07T15:04:24;28.00;40.90
18948;DHT22;9607;51.600;7.558;2022-08-07T15:06:51;28.40;41.70
18948;DHT22;9607;51.600;7.558;2022-08-07T15:09:20;29.80;42.10
18948;DHT22;9607;51.600;7.558;2022-08-07T15:11:52;31.80;39.50
18948;DHT22;9607;51.600;7.558;2022-08-07T15:14:23;33.90;36.10
18948;DHT22;9607;51.600;7.558;2022-08-07T15:16:56;35.40;34.20
18948;DHT22;9607;51.600;7.558;2022-08-07T15:19:28;36.70;32.80
18948;DHT22;9607;51.600;7.558;2022-08-07T15:21:57;38.00;30.30
18948;DHT22;9607;51.600;7.558;2022-08-07T15:24:30;39.30;29.70
18948;DHT22;9607;51.600;7.558;2022-08-07T15:27:05;40.60;28.10
18948;DHT22;9607;51.600;7.558;2022-08-07T15:29:37;41.60;27.00
18948;DHT22;9607;51.600;7.558;2022-08-07T15:32:06;42.50;26.80
18948;DHT22;9607;51.600;7.558;2022-08-07T15:34:36;43.40;25.70
18948;DHT22;9607;51.600;7.558;2022-08-07T15:37:05;44.30;25.10
18948;DHT22;9607;51.600;7.558;2022-08-07T15:39:36;44.80;23.70
18948;DHT22;9607;51.600;7.558;2022-08-07T15:42:05;45.00;24.00
18948;DHT22;9607;51.600;7.558;2022-08-07T15:44:44;44.90;23.40
18948;DHT22;9607;51.600;7.558;2022-08-07T15:47:13;44.50;23.60
18948;DHT22;9607;51.600;7.558;2022-08-07T15:49:44;44.70;24.20
18948;DHT22;9607;51.600;7.558;2022-08-07T15:52:12;45.20;23.50
18948;DHT22;9607;51.600;7.558;2022-08-07T15:54:41;45.30;23.00
18948;DHT22;9607;51.600;7.558;2022-08-07T15:57:13;44.90;23.30
18948;DHT22;9607;51.600;7.558;2022-08-07T15:59:46;44.50;23.30
18948;DHT22;9607;51.600;7.558;2022-08-07T16:02:24;44.50;23.30
18948;DHT22;9607;51.600;7.558;2022-08-07T16:04:54;44.60;23.20
18948;DHT22;9607;51.600;7.558;2022-08-07T16:07:25;44.70;23.10
18948;DHT22;9607;51.600;7.558;2022-08-07T16:09:58;44.90;23.20
18948;DHT22;9607;51.600;7.558;2022-08-07T16:12:34;45.00;22.90
18948;DHT22;9607;51.600;7.558;2022-08-07T16:15:21;45.50;22.70
18948;DHT22;9607;51.600;7.558;2022-08-07T16:17:55;45.70;22.30
18948;DHT22;9607;51.600;7.558;2022-08-07T16:20:43;45.90;22.20
18948;DHT22;9607;51.600;7.558;2022-08-07T16:23:28;46.00;22.10
18948;DHT22;9607;51.600;7.558;2022-08-07T16:26:04;46.20;22.60
18948;DHT22;9607;51.600;7.558;2022-08-07T16:29:01;46.40;22.20
18948;DHT22;9607;51.600;7.558;2022-08-07T16:31:39;46.20;21.50
18948;DHT22;9607;51.600;7.558;2022-08-07T16:34:14;45.90;22.10
18948;DHT22;9607;51.600;7.558;2022-08-07T16:36:53;46.30;22.20
18948;DHT22;9607;51.600;7.558;2022-08-07T16:39:59;46.80;22.30
18948;DHT22;9607;51.600;7.558;2022-08-07T16:42:53;47.50;22.20
18948;DHT22;9607;51.600;7.558;2022-08-07T16:45:38;47.70;21.20
18948;DHT22;9607;51.600;7.558;2022-08-07T16:51:29;47.70;21.10
18948;DHT22;9607;51.600;7.558;2022-08-07T16:54:15;48.00;20.90
18948;DHT22;9607;51.600;7.558;2022-08-07T16:57:05;48.10;20.80
18948;DHT22;9607;51.600;7.558;2022-08-07T16:59:46;48.30;20.80
18948;DHT22;9607;51.600;7.558;2022-08-07T17:02:52;48.20;20.40
18948;DHT22;9607;51.600;7.558;2022-08-07T17:05:39;47.70;20.40
18948;DHT22;9607;51.600;7.558;2022-08-07T17:08:10;47.20;20.70
18948;DHT22;9607;51.600;7.558;2022-08-07T17:10:48;46.70;20.80
18948;DHT22;9607;51.600;7.558;2022-08-07T17:13:41;46.00;21.20
18948;DHT22;9607;51.600;7.558;2022-08-07T17:16:13;44.90;21.30
18948;DHT22;9607;51.600;7.558;2022-08-07T17:18:48;43.40;22.00
18948;DHT22;9607;51.600;7.558;2022-08-07T17:21:21;42.30;23.60
18948;DHT22;9607;51.600;7.558;2022-08-07T17:24:02;41.20;23.70
18948;DHT22;9607;51.600;7.558;2022-08-07T17:26:35;39.80;24.40
18948;DHT22;9607;51.600;7.558;2022-08-07T17:29:07;38.30;25.30
18948;DHT22;9607;51.600;7.558;2022-08-07T17:31:46;36.80;26.70
18948;DHT22;9607;51.600;7.558;2022-08-07T17:34:21;35.20;27.80
18948;DHT22;9607;51.600;7.558;2022-08-07T17:36:52;33.90;29.10
18948;DHT22;9607;51.600;7.558;2022-08-07T17:39:37;32.80;30.10
18948;DHT22;9607;51.600;7.558;2022-08-07T17:42:14;31.90;32.30
18948;DHT22;9607;51.600;7.558;2022-08-07T17:44:45;31.20;32.80
18948;DHT22;9607;51.600;7.558;2022-08-07T17:47:16;30.70;33.50
18948;DHT22;9607;51.600;7.558;2022-08-07T17:49:52;30.30;34.30
18948;DHT22;9607;51.600;7.558;2022-08-07T17:52:24;29.90;35.30
18948;DHT22;9607;51.600;7.558;2022-08-07T17:55:03;29.50;36.10
18948;DHT22;9607;51.600;7.558;2022-08-07T17:57:47;29.10;36.60
18948;DHT22;9607;51.600;7.558;2022-08-07T18:00:17;28.70;37.00
18948;DHT22;9607;51.600;7.558;2022-08-07T18:02:51;28.40;37.50
18948;DHT22;9607;51.600;7.558;2022-08-07T18:05:27;28.10;38.00
18948;DHT22;9607;51.600;7.558;2022-08-07T18:08:04;27.80;38.50
18948;DHT22;9607;51.600;7.558;2022-08-07T18:10:41;27.50;39.20
18948;DHT22;9607;51.600;7.558;2022-08-07T18:13:14;27.30;39.90
18948;DHT22;9607;51.600;7.558;2022-08-07T18:16:02;27.10;40.30
18948;DHT22;9607;51.600;7.558;2022-08-07T18:18:35;27.00;40.70
18948;DHT22;9607;51.600;7.558;2022-08-07T18:21:08;26.80;41.00
18948;DHT22;9607;51.600;7.558;2022-08-07T18:26:56;26.60;41.40
18948;DHT22;9607;51.600;7.558;2022-08-07T18:29:33;26.40;41.80
18948;DHT22;9607;51.600;7.558;2022-08-07T18:32:13;26.20;42.40
18948;DHT22;9607;51.600;7.558;2022-08-07T18:34:59;26.00;43.00
18948;DHT22;9607;51.600;7.558;2022-08-07T18:37:42;25.70;43.40
18948;DHT22;9607;51.600;7.558;2022-08-07T18:40:26;25.50;43.90
18948;DHT22;9607;51.600;7.558;2022-08-07T18:43:01;25.20;44.60
18948;DHT22;9607;51.600;7.558;2022-08-07T18:45:40;25.10;45.00
18948;DHT22;9607;51.600;7.558;2022-08-07T18:48:25;24.80;45.60
18948;DHT22;9607;51.600;7.558;2022-08-07T18:51:02;24.60;46.30
18948;DHT22;9607;51.600;7.558;2022-08-07T18:53:45;24.30;46.80